createdAt,value
2022-08-25T00:01:46.345Z,74.80
2022-08-25T00:04:14.618Z,74.40
2022-08-25T00:06:42.615Z,74.60
2022-08-25T00:09:10.345Z,74.50
2022-08-25T00:11:38.829Z,74.60
2022-08-25T00:14:07.605Z,74.70
2022-08-25T00:16:34.898Z,74.80
2022-08-25T00:19:04.384Z,74.70
2022-08-25T00:21:31.906Z,75.00
2022-08-25T00:23:59.807Z,75.50
2022-08-25T00:26:27.682Z,75.30
2022-08-25T00:28:57.490Z,75.30
2022-08-25T00:31:38.500Z,75.70
2022-08-25T00:34:11.346Z,75.90
2022-08-25T00:36:38.646Z,76.40
2022-08-25T00:39:06.288Z,76.40
2022-08-25T00:41:35.109Z,76.50
2022-08-25T00:44:04.418Z,76.70
2022-08-25T00:46:34.234Z,76.80
2022-08-25T00:49:02.978Z,77.00
2022-08-25T00:51:38.844Z,77.20
2022-08-25T00:54:05.922Z,77.40
2022-08-25T00:56:32.782Z,77.10
2022-08-25T00:58:59.797Z,77.30
2022-08-25T01:01:26.852Z,77.30
2022-08-25T01:03:53.686Z,77.40
2022-08-25T01:06:20.494Z,77.40
2022-08-25T01:08:47.466Z,77.20
2022-08-25T01:11:14.190Z,77.70
2022-08-25T01:13:45.370Z,77.50
2022-08-25T01:16:13.438Z,77.70
2022-08-25T01:18:54.110Z,77.90
2022-08-25T01:21:21.874Z,77.50
2022-08-25T01:23:49.759Z,77.40
2022-08-25T01:26:21.126Z,77.80
2022-08-25T01:29:16.472Z,78.00
2022-08-25T01:31:43.196Z,78.20
2022-08-25T01:34:12.587Z,78.30
2022-08-25T01:36:39.787Z,78.50
2022-08-25T01:39:06.696Z,78.50
2022-08-25T01:41:45.009Z,78.90
2022-08-25T01:44:16.067Z,79.10
2022-08-25T01:46:43.329Z,79.00
2022-08-25T01:49:10.715Z,79.30
2022-08-25T01:51:44.686Z,79.50
2022-08-25T01:54:11.376Z,79.50
2022-08-25T01:56:38.763Z,79.50
2022-08-25T01:59:05.617Z,79.50
2022-08-25T02:01:32.550Z,79.70
2022-08-25T02:03:59.743Z,79.70
2022-08-25T02:06:29.842Z,79.70
2022-08-25T02:08:58.575Z,80.00
2022-08-25T02:11:25.676Z,79.80
2022-08-25T02:13:52.560Z,80.20
2022-08-25T02:16:31.080Z,80.40
2022-08-25T02:18:59.182Z,80.40
2022-08-25T02:21:26.318Z,80.30
2022-08-25T02:23:53.462Z,80.80
2022-08-25T02:26:20.190Z,80.60
2022-08-25T02:28:47.875Z,81.00
2022-08-25T02:31:15.373Z,82.00
2022-08-25T02:33:42.146Z,81.50
2022-08-25T02:36:08.999Z,81.50
2022-08-25T02:38:35.856Z,81.60
2022-08-25T02:41:09.266Z,81.80
2022-08-25T02:43:35.980Z,81.80
2022-08-25T02:46:02.836Z,81.60
2022-08-25T02:48:32.921Z,81.60
2022-08-25T02:51:00.949Z,81.90
2022-08-25T02:53:28.992Z,81.90
2022-08-25T02:55:55.719Z,81.90
2022-08-25T02:58:22.649Z,82.00
2022-08-25T03:00:49.709Z,82.40
2022-08-25T03:03:16.617Z,82.30
2022-08-25T03:05:43.516Z,82.30
2022-08-25T03:08:11.098Z,82.40
2022-08-25T03:10:37.925Z,82.00
2022-08-25T03:13:04.940Z,82.20
2022-08-25T03:15:31.671Z,82.30
2022-08-25T03:18:00.009Z,82.40
2022-08-25T03:20:27.961Z,82.50
2022-08-25T03:22:54.647Z,82.60
2022-08-25T03:25:40.182Z,82.60
2022-08-25T03:28:07.556Z,82.70
2022-08-25T03:30:34.711Z,82.90
2022-08-25T03:33:01.394Z,83.00
2022-08-25T03:35:28.115Z,83.20
2022-08-25T03:37:58.296Z,83.40
2022-08-25T03:40:25.077Z,83.40
2022-08-25T03:42:52.069Z,83.40
2022-08-25T03:45:19.024Z,83.60
2022-08-25T03:47:46.799Z,83.80
2022-08-25T03:50:13.852Z,83.90
2022-08-25T03:52:42.706Z,84.10
2022-08-25T03:55:11.375Z,84.40
2022-08-25T03:57:38.344Z,84.60
2022-08-25T04:00:06.451Z,84.80
2022-08-25T04:02:33.923Z,85.00
2022-08-25T04:05:01.117Z,85.00
2022-08-25T04:07:27.822Z,85.10
2022-08-25T04:09:55.082Z,85.90
2022-08-25T04:12:22.027Z,85.40
2022-08-25T04:14:50.006Z,85.50
2022-08-25T04:17:16.834Z,85.50
2022-08-25T04:19:43.661Z,85.90
2022-08-25T04:22:10.420Z,85.90
2022-08-25T04:24:37.154Z,85.70
2022-08-25T04:27:04.185Z,85.80
2022-08-25T04:29:30.906Z,85.90
2022-08-25T04:31:57.678Z,85.70
2022-08-25T04:34:30.507Z,85.50
2022-08-25T04:37:02.672Z,85.80
2022-08-25T04:39:29.974Z,86.00
2022-08-25T04:41:56.747Z,85.90
2022-08-25T04:44:23.575Z,86.50
2022-08-25T04:46:50.279Z,86.80
2022-08-25T04:49:17.000Z,86.60
2022-08-25T04:51:43.750Z,86.70
2022-08-25T04:54:12.646Z,86.80
2022-08-25T04:56:40.059Z,87.10
2022-08-25T04:59:08.420Z,86.70
2022-08-25T05:01:35.173Z,87.20
2022-08-25T05:04:03.291Z,86.80
2022-08-25T05:06:30.316Z,86.30
2022-08-25T05:08:57.884Z,86.50
2022-08-25T05:11:25.150Z,86.60
2022-08-25T05:13:52.938Z,86.90
2022-08-25T05:16:21.084Z,87.00
2022-08-25T05:18:48.142Z,87.30
2022-08-25T05:21:16.070Z,87.60
2022-08-25T05:23:43.185Z,88.00
2022-08-25T05:26:19.108Z,88.20
2022-08-25T05:28:46.860Z,88.50
2022-08-25T05:31:14.290Z,88.30
2022-08-25T05:33:41.788Z,88.50
2022-08-25T05:36:10.106Z,88.50
2022-08-25T05:38:37.837Z,88.50
2022-08-25T05:41:06.687Z,89.30
2022-08-25T05:43:33.474Z,88.60
2022-08-25T05:46:00.261Z,88.50
2022-08-25T05:48:27.184Z,88.80
2022-08-25T05:50:54.874Z,88.90
2022-08-25T05:53:22.890Z,88.90
2022-08-25T05:55:50.948Z,88.90
2022-08-25T05:58:17.719Z,89.00
2022-08-25T06:00:44.547Z,89.00
2022-08-25T06:03:11.659Z,89.10
2022-08-25T06:05:38.425Z,88.80
2022-08-25T06:08:05.291Z,88.60
2022-08-25T06:10:32.143Z,88.30
2022-08-25T06:12:59.000Z,88.20
2022-08-25T06:15:25.901Z,88.20
2022-08-25T06:17:54.192Z,87.80
2022-08-25T06:20:25.363Z,87.80
2022-08-25T06:22:52.907Z,87.80
2022-08-25T06:25:21.256Z,87.60
2022-08-25T06:27:48.032Z,87.60
2022-08-25T06:30:16.588Z,87.60
2022-08-25T06:32:43.931Z,87.70
2022-08-25T06:35:12.648Z,87.40
2022-08-25T06:37:39.941Z,87.50
2022-08-25T06:40:09.671Z,87.60
2022-08-25T06:42:36.420Z,87.30
2022-08-25T06:45:03.409Z,87.00
2022-08-25T06:47:30.120Z,86.90
2022-08-25T06:49:56.888Z,86.70
2022-08-25T06:52:29.280Z,86.40
2022-08-25T06:54:56.392Z,86.10
2022-08-25T06:57:23.211Z,86.10
2022-08-25T06:59:49.890Z,85.90
2022-08-25T07:02:21.898Z,85.50
2022-08-25T07:04:50.044Z,85.50
2022-08-25T07:07:17.499Z,84.20
2022-08-25T07:09:45.481Z,83.90
2022-08-25T07:12:13.360Z,83.00
2022-08-25T07:14:40.260Z,82.80
2022-08-25T07:20:01.613Z,81.50
2022-08-25T07:22:29.034Z,81.50
2022-08-25T07:25:00.319Z,82.10
2022-08-25T07:27:32.186Z,81.10
2022-08-25T07:32:43.114Z,80.30
2022-08-25T07:35:24.026Z,79.80
2022-08-25T07:37:54.524Z,79.50
2022-08-25T07:40:34.345Z,79.40
2022-08-25T07:43:10.478Z,79.00
2022-08-25T07:45:44.927Z,78.80
2022-08-25T07:48:18.360Z,79.20
2022-08-25T07:50:47.097Z,78.20
2022-08-25T07:53:15.583Z,77.70
2022-08-25T07:55:45.245Z,77.40
2022-08-25T07:58:14.551Z,77.30
2022-08-25T08:00:51.885Z,77.70
2022-08-25T08:03:42.125Z,77.40
2022-08-25T08:08:42.613Z,75.60
2022-08-25T08:11:20.058Z,76.50
2022-08-25T08:13:47.830Z,77.30
2022-08-25T08:16:19.115Z,76.90
2022-08-25T08:18:46.554Z,77.20
2022-08-25T08:21:19.893Z,77.20
2022-08-25T08:23:49.236Z,75.60
2022-08-25T08:26:16.858Z,75.50
2022-08-25T08:28:43.879Z,75.20
2022-08-25T08:31:10.897Z,75.10
2022-08-25T08:33:43.166Z,74.70
2022-08-25T08:36:13.613Z,74.70
2022-08-25T08:38:42.856Z,74.50
2022-08-25T08:41:28.745Z,75.10
2022-08-25T08:44:20.221Z,74.10
2022-08-25T08:47:08.945Z,74.70
2022-08-25T08:49:53.002Z,74.40
2022-08-25T08:52:23.606Z,73.10
2022-08-25T08:55:06.532Z,73.30
2022-08-25T08:57:38.107Z,73.50
2022-08-25T09:00:06.845Z,72.50
2022-08-25T09:02:38.950Z,72.80
2022-08-25T09:08:07.634Z,72.60
2022-08-25T09:10:42.655Z,73.00
2022-08-25T09:13:19.845Z,72.50
2022-08-25T09:16:20.644Z,72.40
2022-08-25T09:19:11.509Z,73.20
2022-08-25T09:22:25.428Z,72.30
2022-08-25T09:24:58.808Z,71.90
2022-08-25T09:27:44.947Z,71.50
2022-08-25T09:30:18.784Z,71.10
2022-08-25T09:32:53.544Z,72.30
2022-08-25T09:35:35.588Z,71.30
2022-08-25T09:38:06.044Z,71.40
2022-08-25T09:40:36.264Z,72.30
2022-08-25T09:46:23.351Z,71.40
2022-08-25T09:48:58.622Z,70.50
2022-08-25T09:51:27.964Z,70.80
2022-08-25T09:53:56.603Z,70.70
2022-08-25T09:56:30.118Z,71.20
2022-08-25T09:59:19.342Z,70.70
2022-08-25T10:01:52.107Z,70.70
2022-08-25T10:04:38.873Z,71.90
2022-08-25T10:07:21.513Z,70.50
2022-08-25T10:10:00.216Z,70.20
2022-08-25T10:12:42.462Z,71.00
2022-08-25T10:15:32.689Z,69.80
2022-08-25T10:18:18.714Z,69.80
2022-08-25T10:21:01.507Z,70.50
2022-08-25T10:23:30.835Z,70.20
2022-08-25T10:26:20.706Z,67.60
2022-08-25T10:29:00.322Z,68.30
2022-08-25T10:31:34.793Z,67.40
2022-08-25T10:34:16.378Z,68.80
2022-08-25T10:37:32.912Z,69.40
2022-08-25T10:40:11.110Z,67.70
2022-08-25T10:42:55.836Z,67.90
2022-08-25T10:45:42.066Z,68.80
2022-08-25T10:48:22.991Z,68.00
2022-08-25T10:51:25.264Z,65.40
2022-08-25T10:54:03.184Z,66.10
2022-08-25T10:56:43.753Z,66.10
2022-08-25T10:59:34.164Z,64.50
2022-08-25T11:02:10.969Z,64.00
2022-08-25T11:04:54.688Z,62.40
2022-08-25T11:07:43.804Z,63.90
2022-08-25T11:10:18.123Z,65.50
2022-08-25T11:12:54.775Z,64.20
2022-08-25T11:15:35.730Z,62.20
2022-08-25T11:18:14.652Z,62.80
2022-08-25T11:21:02.786Z,63.50
2022-08-25T11:23:39.506Z,65.40
2022-08-25T11:26:27.261Z,64.50
2022-08-25T11:29:12.927Z,65.50
2022-08-25T11:31:59.067Z,63.00
2022-08-25T11:34:40.093Z,63.30
2022-08-25T11:37:23.850Z,63.10
2022-08-25T11:40:02.510Z,64.10
2022-08-25T11:42:51.012Z,64.30
2022-08-25T11:45:40.506Z,64.40
2022-08-25T11:48:29.710Z,64.50
2022-08-25T11:51:09.501Z,64.20
2022-08-25T11:53:38.069Z,62.80
2022-08-25T11:56:16.007Z,61.10
2022-08-25T11:58:46.947Z,61.50
2022-08-25T12:01:46.025Z,61.60
2022-08-25T12:04:18.270Z,61.80
2022-08-25T12:07:17.129Z,62.00
2022-08-25T12:10:11.524Z,60.70
2022-08-25T12:12:45.743Z,61.40
2022-08-25T12:15:19.441Z,62.00
2022-08-25T12:18:09.600Z,60.70
2022-08-25T12:21:09.059Z,60.30
2022-08-25T12:23:52.821Z,59.90
2022-08-25T12:26:41.306Z,58.30
2022-08-25T12:29:31.695Z,58.90
2022-08-25T12:32:09.462Z,59.20
2022-08-25T12:34:43.300Z,59.30
2022-08-25T12:37:17.627Z,58.90
2022-08-25T12:39:50.834Z,58.30
2022-08-25T12:42:38.180Z,59.50
2022-08-25T12:45:40.934Z,59.10
2022-08-25T12:48:37.825Z,58.40
2022-08-25T12:51:07.893Z,58.90
2022-08-25T12:53:40.947Z,58.60
2022-08-25T12:56:07.968Z,57.60
2022-08-25T12:59:00.327Z,57.80
2022-08-25T13:01:40.016Z,57.00
2022-08-25T13:04:13.013Z,56.30
2022-08-25T13:07:06.582Z,56.10
2022-08-25T13:09:34.502Z,56.80
2022-08-25T13:12:14.587Z,57.90
2022-08-25T13:14:45.093Z,56.40
2022-08-25T13:17:24.846Z,57.30
2022-08-25T13:19:56.254Z,55.00
2022-08-25T13:22:24.761Z,55.10
2022-08-25T13:24:53.311Z,57.30
2022-08-25T13:27:22.754Z,57.50
2022-08-25T13:29:54.653Z,55.30
2022-08-25T13:32:32.468Z,56.80
2022-08-25T13:35:20.805Z,57.30
2022-08-25T13:37:48.752Z,57.40
2022-08-25T13:40:27.407Z,58.20
2022-08-25T13:42:58.492Z,57.80
2022-08-25T13:45:30.096Z,57.80
2022-08-25T13:47:59.102Z,57.00
2022-08-25T13:50:26.522Z,57.40
2022-08-25T13:52:54.718Z,55.30
2022-08-25T13:55:27.420Z,55.50
2022-08-25T13:57:54.910Z,56.50
2022-08-25T14:00:31.872Z,57.50
2022-08-25T14:03:00.755Z,58.20
2022-08-25T14:05:42.539Z,58.00
2022-08-25T14:08:30.166Z,58.10
2022-08-25T14:11:14.932Z,56.70
2022-08-25T14:13:45.496Z,57.90
2022-08-25T14:16:15.651Z,57.20
2022-08-25T14:18:50.830Z,57.50
2022-08-25T14:21:19.781Z,57.40
2022-08-25T14:23:46.577Z,57.20
2022-08-25T14:26:13.763Z,55.60
2022-08-25T14:28:41.181Z,58.00
2022-08-25T14:31:10.398Z,58.60
2022-08-25T14:33:42.703Z,58.00
2022-08-25T14:36:12.697Z,58.00
2022-08-25T14:38:45.672Z,58.00
2022-08-25T14:41:23.080Z,57.50
2022-08-25T14:43:50.704Z,58.10
2022-08-25T14:46:25.241Z,58.00
2022-08-25T14:48:55.848Z,58.10
2022-08-25T14:51:29.635Z,57.60
2022-08-25T14:53:58.906Z,57.00
2022-08-25T14:56:25.710Z,56.60
2022-08-25T14:58:56.234Z,57.30
2022-08-25T15:01:28.924Z,57.50
2022-08-25T15:04:23.623Z,57.30
2022-08-25T15:06:56.652Z,57.60
2022-08-25T15:09:25.027Z,57.40
2022-08-25T15:12:00.262Z,57.20
2022-08-25T15:14:28.562Z,55.40
2022-08-25T15:17:11.000Z,56.00
2022-08-25T15:19:38.619Z,58.00
2022-08-25T15:22:05.687Z,56.60
2022-08-25T15:24:37.799Z,56.40
2022-08-25T15:27:07.464Z,56.10
2022-08-25T15:29:39.133Z,55.60
2022-08-25T15:32:10.235Z,55.00
2022-08-25T15:34:37.605Z,54.90
2022-08-25T15:37:12.423Z,55.00
2022-08-25T15:39:44.640Z,55.10
2022-08-25T15:42:12.685Z,55.50
2022-08-25T15:44:39.840Z,55.10
2022-08-25T15:47:08.593Z,55.10
2022-08-25T15:49:39.869Z,56.00
2022-08-25T15:52:06.789Z,55.40
2022-08-25T15:54:33.782Z,55.60
2022-08-25T15:57:03.289Z,55.40
2022-08-25T15:59:41.053Z,55.60
2022-08-25T16:02:15.318Z,55.20
2022-08-25T16:04:42.373Z,56.20
2022-08-25T16:07:13.199Z,56.80
2022-08-25T16:09:40.728Z,56.20
2022-08-25T16:12:08.582Z,56.90
2022-08-25T16:14:36.975Z,56.00
2022-08-25T16:17:04.622Z,56.60
2022-08-25T16:19:32.657Z,56.80
2022-08-25T16:22:00.693Z,57.30
2022-08-25T16:24:29.322Z,57.40
2022-08-25T16:27:11.383Z,56.80
2022-08-25T16:29:39.730Z,56.50
2022-08-25T16:32:07.458Z,57.10
2022-08-25T16:34:35.570Z,57.80
2022-08-25T16:37:03.411Z,58.00
2022-08-25T16:39:31.510Z,57.40
2022-08-25T16:41:58.409Z,57.60
2022-08-25T16:44:25.819Z,57.60
2022-08-25T16:46:54.771Z,57.80
2022-08-25T16:49:24.341Z,58.30
2022-08-25T16:51:56.687Z,58.90
2022-08-25T16:57:33.192Z,59.10
2022-08-25T17:00:07.461Z,59.00
2022-08-25T17:05:19.899Z,58.90
2022-08-25T17:08:22.415Z,59.60
2022-08-25T17:11:04.146Z,59.60
2022-08-25T17:13:52.607Z,59.40
2022-08-25T17:19:08.739Z,59.70
2022-08-25T17:21:57.224Z,59.70
2022-08-25T17:24:40.703Z,59.20
2022-08-25T17:27:14.888Z,59.40
2022-08-25T17:29:49.258Z,59.50
2022-08-25T17:32:18.013Z,59.70
2022-08-25T17:34:53.230Z,60.50
2022-08-25T17:40:22.116Z,61.30
2022-08-25T17:42:59.548Z,62.10
2022-08-25T17:48:16.901Z,62.00
2022-08-25T17:51:04.037Z,62.80
2022-08-25T17:53:46.905Z,63.50
2022-08-25T17:56:21.662Z,63.90
2022-08-25T17:58:56.636Z,63.90
2022-08-25T18:01:33.453Z,63.80
2022-08-25T18:04:19.442Z,63.90
2022-08-25T18:09:38.355Z,64.90
2022-08-25T18:15:22.107Z,65.20
2022-08-25T18:18:02.219Z,65.60
2022-08-25T18:20:58.731Z,66.10
2022-08-25T18:23:36.861Z,66.50
2022-08-25T18:26:12.880Z,66.50
2022-08-25T18:31:30.214Z,66.40
2022-08-25T18:42:20.909Z,68.10
2022-08-25T18:44:48.046Z,69.10
2022-08-25T18:47:14.918Z,69.50
2022-08-25T18:49:41.657Z,69.40
2022-08-25T18:52:08.331Z,70.40
2022-08-25T18:54:36.111Z,70.90
2022-08-25T18:57:03.094Z,71.40
2022-08-25T18:59:29.892Z,71.40
2022-08-25T19:01:57.388Z,70.50
2022-08-25T19:04:31.285Z,70.90
2022-08-25T19:06:58.666Z,70.60
2022-08-25T19:09:25.405Z,70.90
2022-08-25T19:11:52.776Z,71.30
2022-08-25T19:14:21.646Z,75.80
2022-08-25T19:16:48.586Z,71.30
2022-08-25T19:19:15.331Z,71.50
2022-08-25T19:21:42.469Z,71.10
2022-08-25T19:24:09.988Z,71.40
2022-08-25T19:26:37.034Z,71.80
2022-08-25T19:29:05.624Z,70.90
2022-08-25T19:31:36.042Z,70.80
2022-08-25T19:34:03.551Z,71.10
2022-08-25T19:36:30.333Z,71.20
2022-08-25T19:38:58.830Z,71.10
2022-08-25T19:41:26.199Z,70.90
2022-08-25T19:43:56.695Z,71.70
2022-08-25T19:46:32.780Z,72.10
2022-08-25T19:49:08.371Z,71.50
2022-08-25T19:51:39.756Z,72.30
2022-08-25T19:54:09.145Z,71.50
2022-08-25T19:56:37.751Z,71.70
2022-08-25T19:59:10.941Z,72.40
2022-08-25T20:01:37.701Z,73.00
2022-08-25T20:04:07.147Z,73.10
2022-08-25T20:06:33.910Z,73.10
2022-08-25T20:09:00.806Z,73.80
2022-08-25T20:11:28.502Z,73.90
2022-08-25T20:13:56.085Z,73.50
2022-08-25T20:16:25.113Z,74.00
2022-08-25T20:18:52.326Z,74.30
2022-08-25T20:21:19.207Z,75.10
2022-08-25T20:24:04.454Z,74.20
2022-08-25T20:26:31.284Z,74.30
2022-08-25T20:28:58.087Z,74.20
2022-08-25T20:31:24.843Z,74.30
2022-08-25T20:33:51.623Z,74.40
2022-08-25T20:36:19.507Z,75.30
2022-08-25T20:38:46.297Z,75.20
2022-08-25T20:41:13.668Z,75.50
2022-08-25T20:43:41.177Z,75.70
2022-08-25T20:46:08.716Z,75.60
2022-08-25T20:48:35.732Z,75.90
2022-08-25T20:51:06.208Z,75.90
2022-08-25T20:53:36.097Z,75.80
2022-08-25T20:56:06.843Z,76.00
2022-08-25T20:58:35.982Z,76.30
2022-08-25T21:01:03.908Z,76.10
2022-08-25T21:03:31.791Z,76.10
2022-08-25T21:05:58.598Z,76.10
2022-08-25T21:08:25.545Z,76.10
2022-08-25T21:10:52.372Z,76.10
2022-08-25T21:13:19.070Z,76.10
2022-08-25T21:15:48.634Z,76.40
2022-08-25T21:18:15.413Z,76.30
2022-08-25T21:20:43.024Z,76.30
2022-08-25T21:23:09.711Z,76.40
2022-08-25T21:25:41.091Z,76.80
2022-08-25T21:28:08.091Z,76.80
2022-08-25T21:30:34.893Z,77.30
2022-08-25T21:33:02.166Z,77.20
2022-08-25T21:35:28.969Z,76.90
2022-08-25T21:37:55.950Z,77.30
2022-08-25T21:40:23.350Z,77.80
2022-08-25T21:42:50.848Z,77.10
2022-08-25T21:45:20.947Z,77.60
2022-08-25T21:47:48.509Z,77.90
2022-08-25T21:50:15.309Z,77.90
2022-08-25T21:52:42.223Z,78.40
2022-08-25T21:55:16.209Z,78.20
2022-08-25T21:57:43.846Z,78.50
2022-08-25T22:00:11.637Z,78.50
2022-08-25T22:02:38.577Z,78.40
2022-08-25T22:05:09.379Z,78.70
2022-08-25T22:07:41.612Z,78.80
2022-08-25T22:10:16.645Z,78.80
2022-08-25T22:12:44.807Z,79.40
2022-08-25T22:15:13.534Z,79.70
2022-08-25T22:17:40.571Z,79.90
2022-08-25T22:20:07.724Z,80.00
2022-08-25T22:22:34.437Z,80.10
2022-08-25T22:25:01.270Z,80.10
2022-08-25T22:27:28.660Z,80.50
2022-08-25T22:29:56.223Z,80.50
2022-08-25T22:32:23.129Z,80.30
2022-08-25T22:34:50.625Z,80.20
2022-08-25T22:37:18.029Z,80.30
2022-08-25T22:39:45.580Z,80.20
2022-08-25T22:42:12.512Z,80.20
2022-08-25T22:44:40.051Z,80.70
2022-08-25T22:47:06.969Z,80.60
2022-08-25T22:49:35.519Z,80.40
2022-08-25T22:52:02.517Z,80.50
2022-08-25T22:54:29.939Z,80.50
2022-08-25T22:56:56.693Z,80.60
2022-08-25T22:59:23.410Z,80.60
2022-08-25T23:01:52.439Z,80.60
2022-08-25T23:04:19.451Z,80.70
2022-08-25T23:06:46.174Z,81.00
2022-08-25T23:09:15.421Z,81.00
2022-08-25T23:11:42.244Z,80.80
2022-08-25T23:14:11.073Z,80.80
2022-08-25T23:16:38.756Z,80.90
2022-08-25T23:19:05.564Z,81.20
2022-08-25T23:21:52.491Z,81.40
2022-08-25T23:24:29.314Z,81.60
2022-08-25T23:26:57.770Z,82.10
2022-08-25T23:29:25.206Z,82.30
2022-08-25T23:31:52.219Z,82.20
2022-08-25T23:34:21.616Z,82.30
2022-08-25T23:36:49.139Z,82.80
2022-08-25T23:39:16.159Z,82.60
2022-08-25T23:41:42.925Z,83.60
2022-08-25T23:44:11.571Z,83.00
2022-08-25T23:46:39.510Z,83.30
2022-08-25T23:49:08.462Z,82.90
2022-08-25T23:51:38.285Z,82.60
2022-08-25T23:54:09.326Z,82.60
2022-08-25T23:56:42.288Z,82.70
2022-08-25T23:59:18.739Z,82.50
